sensor_id;sensor_type;location;lat;lon;timestamp;temperature;humidity
19168;DHT22;9716;53.114;18.040;2023-07-30T00:00:24;19.00;99.90
19168;DHT22;9716;53.114;18.040;2023-07-30T00:03:12;19.00;99.90
19168;DHT22;9716;53.114;18.040;2023-07-30T00:05:41;19.00;99.90
19168;DHT22;9716;53.114;18.040;2023-07-30T00:08:09;19.00;99.90
19168;DHT22;9716;53.114;18.040;2023-07-30T00:10:38;19.00;99.90
19168;DHT22;9716;53.114;18.040;2023-07-30T00:13:07;19.00;99.90
19168;DHT22;9716;53.114;18.040;2023-07-30T00:15:36;19.00;99.90
19168;DHT22;9716;53.114;18.040;2023-07-30T00:18:04;19.00;99.90
19168;DHT22;9716;53.114;18.040;2023-07-30T00:20:34;19.00;99.90
19168;DHT22;9716;53.114;18.040;2023-07-30T00:23:03;19.00;99.90
19168;DHT22;9716;53.114;18.040;2023-07-30T00:25:32;19.00;99.90
19168;DHT22;9716;53.114;18.040;2023-07-30T00:28:00;19.00;99.90
19168;DHT22;9716;53.114;18.040;2023-07-30T00:30:30;19.00;99.90
19168;DHT22;9716;53.114;18.040;2023-07-30T00:32:58;19.00;99.90
19168;DHT22;9716;53.114;18.040;2023-07-30T00:35:27;18.90;99.90
19168;DHT22;9716;53.114;18.040;2023-07-30T00:37:55;18.90;99.90
19168;DHT22;9716;53.114;18.040;2023-07-30T00:40:24;18.90;99.90
19168;DHT22;9716;53.114;18.040;2023-07-30T00:42:52;19.00;99.90
19168;DHT22;9716;53.114;18.040;2023-07-30T00:45:21;18.90;99.90
19168;DHT22;9716;53.114;18.040;2023-07-30T00:47:51;19.00;99.90
19168;DHT22;9716;53.114;18.040;2023-07-30T00:50:19;19.00;99.90
19168;DHT22;9716;53.114;18.040;2023-07-30T00:52:48;19.00;99.90
19168;DHT22;9716;53.114;18.040;2023-07-30T00:55:16;19.00;99.90
19168;DHT22;9716;53.114;18.040;2023-07-30T00:57:45;19.00;99.90
19168;DHT22;9716;53.114;18.040;2023-07-30T01:00:14;18.90;99.90
19168;DHT22;9716;53.114;18.040;2023-07-30T01:02:43;19.00;99.90
19168;DHT22;9716;53.114;18.040;2023-07-30T01:05:13;19.00;99.90
19168;DHT22;9716;53.114;18.040;2023-07-30T01:07:41;19.00;99.90
19168;DHT22;9716;53.114;18.040;2023-07-30T01:10:10;19.00;99.90
19168;DHT22;9716;53.114;18.040;2023-07-30T01:12:39;19.00;99.90
19168;DHT22;9716;53.114;18.040;2023-07-30T01:15:09;19.00;99.90
19168;DHT22;9716;53.114;18.040;2023-07-30T01:17:38;19.00;99.90
19168;DHT22;9716;53.114;18.040;2023-07-30T01:20:07;19.00;99.90
19168;DHT22;9716;53.114;18.040;2023-07-30T01:22:37;19.00;99.90
19168;DHT22;9716;53.114;18.040;2023-07-30T01:25:06;19.00;99.90
19168;DHT22;9716;53.114;18.040;2023-07-30T01:27:37;19.00;99.90
19168;DHT22;9716;53.114;18.040;2023-07-30T01:30:12;19.00;99.90
19168;DHT22;9716;53.114;18.040;2023-07-30T01:32:42;19.00;99.90
19168;DHT22;9716;53.114;18.040;2023-07-30T01:35:12;19.00;99.90
19168;DHT22;9716;53.114;18.040;2023-07-30T01:37:43;19.00;99.90
19168;DHT22;9716;53.114;18.040;2023-07-30T01:40:13;19.00;99.90
19168;DHT22;9716;53.114;18.040;2023-07-30T01:42:42;19.00;99.90
19168;DHT22;9716;53.114;18.040;2023-07-30T01:45:10;19.00;99.90
19168;DHT22;9716;53.114;18.040;2023-07-30T01:47:39;19.00;99.90
19168;DHT22;9716;53.114;18.040;2023-07-30T01:50:08;19.00;99.90
19168;DHT22;9716;53.114;18.040;2023-07-30T01:52:36;18.90;99.90
19168;DHT22;9716;53.114;18.040;2023-07-30T01:55:07;19.00;99.90
19168;DHT22;9716;53.114;18.040;2023-07-30T01:57:36;19.00;99.90
19168;DHT22;9716;53.114;18.040;2023-07-30T02:00:05;18.90;99.90
19168;DHT22;9716;53.114;18.040;2023-07-30T02:02:34;18.90;99.90
19168;DHT22;9716;53.114;18.040;2023-07-30T02:05:04;18.90;99.90
19168;DHT22;9716;53.114;18.040;2023-07-30T02:07:32;18.90;99.90
19168;DHT22;9716;53.114;18.040;2023-07-30T02:10:01;18.90;99.90
19168;DHT22;9716;53.114;18.040;2023-07-30T02:12:30;18.90;99.90
19168;DHT22;9716;53.114;18.040;2023-07-30T02:14:59;18.80;99.90
19168;DHT22;9716;53.114;18.040;2023-07-30T02:17:27;18.80;99.90
19168;DHT22;9716;53.114;18.040;2023-07-30T02:19:56;18.80;99.90
19168;DHT22;9716;53.114;18.040;2023-07-30T02:22:24;18.80;99.90
19168;DHT22;9716;53.114;18.040;2023-07-30T02:24:53;18.80;99.90
19168;DHT22;9716;53.114;18.040;2023-07-30T02:27:24;18.80;99.90
19168;DHT22;9716;53.114;18.040;2023-07-30T02:29:54;18.80;99.90
19168;DHT22;9716;53.114;18.040;2023-07-30T02:32:22;18.90;99.90
19168;DHT22;9716;53.114;18.040;2023-07-30T02:34:51;18.90;99.90
19168;DHT22;9716;53.114;18.040;2023-07-30T02:37:19;18.90;99.90
19168;DHT22;9716;53.114;18.040;2023-07-30T02:39:48;18.90;99.90
19168;DHT22;9716;53.114;18.040;2023-07-30T02:42:16;18.90;99.90
19168;DHT22;9716;53.114;18.040;2023-07-30T02:44:44;18.90;99.90
19168;DHT22;9716;53.114;18.040;2023-07-30T02:47:14;18.90;99.90
19168;DHT22;9716;53.114;18.040;2023-07-30T02:49:43;19.00;99.90
19168;DHT22;9716;53.114;18.040;2023-07-30T02:52:11;19.00;99.90
19168;DHT22;9716;53.114;18.040;2023-07-30T02:54:39;19.00;99.90
19168;DHT22;9716;53.114;18.040;2023-07-30T02:57:08;19.00;99.90
19168;DHT22;9716;53.114;18.040;2023-07-30T02:59:37;19.00;99.90
19168;DHT22;9716;53.114;18.040;2023-07-30T03:02:06;19.00;99.90
19168;DHT22;9716;53.114;18.040;2023-07-30T03:04:36;19.00;99.90
19168;DHT22;9716;53.114;18.040;2023-07-30T03:07:05;19.00;99.90
19168;DHT22;9716;53.114;18.040;2023-07-30T03:09:34;19.00;99.90
19168;DHT22;9716;53.114;18.040;2023-07-30T03:12:02;19.00;99.90
19168;DHT22;9716;53.114;18.040;2023-07-30T03:14:31;19.00;99.90
19168;DHT22;9716;53.114;18.040;2023-07-30T03:16:59;19.00;99.90
19168;DHT22;9716;53.114;18.040;2023-07-30T03:19:28;19.00;99.90
19168;DHT22;9716;53.114;18.040;2023-07-30T03:21:58;19.10;99.90
19168;DHT22;9716;53.114;18.040;2023-07-30T03:24:27;19.10;99.90
19168;DHT22;9716;53.114;18.040;2023-07-30T03:26:55;19.10;99.90
19168;DHT22;9716;53.114;18.040;2023-07-30T03:29:24;19.10;99.90
19168;DHT22;9716;53.114;18.040;2023-07-30T03:31:52;19.20;99.90
19168;DHT22;9716;53.114;18.040;2023-07-30T03:34:21;19.20;99.90
19168;DHT22;9716;53.114;18.040;2023-07-30T03:36:49;19.20;99.90
19168;DHT22;9716;53.114;18.040;2023-07-30T03:39:19;19.20;99.90
19168;DHT22;9716;53.114;18.040;2023-07-30T03:41:47;19.30;99.90
19168;DHT22;9716;53.114;18.040;2023-07-30T03:44:16;19.30;99.90
19168;DHT22;9716;53.114;18.040;2023-07-30T03:46:44;19.30;99.90
19168;DHT22;9716;53.114;18.040;2023-07-30T03:49:13;19.30;99.90
19168;DHT22;9716;53.114;18.040;2023-07-30T03:51:41;19.30;99.90
19168;DHT22;9716;53.114;18.040;2023-07-30T03:54:10;19.40;99.90
19168;DHT22;9716;53.114;18.040;2023-07-30T03:56:39;19.40;99.90
19168;DHT22;9716;53.114;18.040;2023-07-30T03:59:08;19.40;99.90
19168;DHT22;9716;53.114;18.040;2023-07-30T04:01:37;19.40;99.90
19168;DHT22;9716;53.114;18.040;2023-07-30T04:04:06;19.40;99.90
19168;DHT22;9716;53.114;18.040;2023-07-30T04:06:34;19.40;99.90
19168;DHT22;9716;53.114;18.040;2023-07-30T04:09:03;19.40;99.90
19168;DHT22;9716;53.114;18.040;2023-07-30T04:11:31;19.50;99.90
19168;DHT22;9716;53.114;18.040;2023-07-30T04:14:01;19.50;99.90
19168;DHT22;9716;53.114;18.040;2023-07-30T04:16:31;19.50;99.90
19168;DHT22;9716;53.114;18.040;2023-07-30T04:19:00;19.50;99.90
19168;DHT22;9716;53.114;18.040;2023-07-30T04:21:29;19.50;99.90
19168;DHT22;9716;53.114;18.040;2023-07-30T04:23:57;19.50;99.90
19168;DHT22;9716;53.114;18.040;2023-07-30T04:26:26;19.50;99.90
19168;DHT22;9716;53.114;18.040;2023-07-30T04:28:54;19.50;99.90
19168;DHT22;9716;53.114;18.040;2023-07-30T04:31:24;19.50;99.90
19168;DHT22;9716;53.114;18.040;2023-07-30T04:33:53;19.60;99.90
19168;DHT22;9716;53.114;18.040;2023-07-30T04:36:21;19.60;99.90
19168;DHT22;9716;53.114;18.040;2023-07-30T04:38:50;19.60;99.90
19168;DHT22;9716;53.114;18.040;2023-07-30T04:41:18;19.60;99.90
19168;DHT22;9716;53.114;18.040;2023-07-30T04:43:48;19.70;99.90
19168;DHT22;9716;53.114;18.040;2023-07-30T04:46:16;19.70;99.90
19168;DHT22;9716;53.114;18.040;2023-07-30T04:48:46;19.70;99.90
19168;DHT22;9716;53.114;18.040;2023-07-30T04:51:15;19.80;99.90
19168;DHT22;9716;53.114;18.040;2023-07-30T04:53:43;19.80;99.90
19168;DHT22;9716;53.114;18.040;2023-07-30T04:56:12;19.80;99.90
19168;DHT22;9716;53.114;18.040;2023-07-30T04:58:40;19.80;99.90
19168;DHT22;9716;53.114;18.040;2023-07-30T05:01:09;19.80;99.90
19168;DHT22;9716;53.114;18.040;2023-07-30T05:03:37;19.80;99.90
19168;DHT22;9716;53.114;18.040;2023-07-30T05:06:07;19.80;99.90
19168;DHT22;9716;53.114;18.040;2023-07-30T05:08:35;19.90;99.90
19168;DHT22;9716;53.114;18.040;2023-07-30T05:11:04;19.90;99.90
19168;DHT22;9716;53.114;18.040;2023-07-30T05:13:32;19.90;99.90
19168;DHT22;9716;53.114;18.040;2023-07-30T05:16:01;20.00;99.90
19168;DHT22;9716;53.114;18.040;2023-07-30T05:18:29;20.00;99.90
19168;DHT22;9716;53.114;18.040;2023-07-30T05:20:58;20.10;99.90
19168;DHT22;9716;53.114;18.040;2023-07-30T05:23:28;20.30;99.90
19168;DHT22;9716;53.114;18.040;2023-07-30T05:25:56;20.40;99.90
19168;DHT22;9716;53.114;18.040;2023-07-30T05:28:25;20.50;99.90
19168;DHT22;9716;53.114;18.040;2023-07-30T05:30:54;20.60;99.90
19168;DHT22;9716;53.114;18.040;2023-07-30T05:33:22;20.70;99.90
19168;DHT22;9716;53.114;18.040;2023-07-30T05:35:51;20.80;99.90
19168;DHT22;9716;53.114;18.040;2023-07-30T05:38:19;20.90;99.90
19168;DHT22;9716;53.114;18.040;2023-07-30T05:40:49;20.90;99.90
19168;DHT22;9716;53.114;18.040;2023-07-30T05:43:18;21.00;99.90
19168;DHT22;9716;53.114;18.040;2023-07-30T05:45:46;21.00;99.90
19168;DHT22;9716;53.114;18.040;2023-07-30T05:48:15;21.10;99.90
19168;DHT22;9716;53.114;18.040;2023-07-30T05:50:43;21.10;99.90
19168;DHT22;9716;53.114;18.040;2023-07-30T05:53:12;21.20;99.90
19168;DHT22;9716;53.114;18.040;2023-07-30T05:55:40;21.30;99.90
19168;DHT22;9716;53.114;18.040;2023-07-30T05:58:10;21.40;99.90
19168;DHT22;9716;53.114;18.040;2023-07-30T06:00:38;21.60;99.90
19168;DHT22;9716;53.114;18.040;2023-07-30T06:03:07;21.70;99.90
19168;DHT22;9716;53.114;18.040;2023-07-30T06:05:39;21.80;99.90
19168;DHT22;9716;53.114;18.040;2023-07-30T06:08:08;21.90;99.90
19168;DHT22;9716;53.114;18.040;2023-07-30T06:10:37;22.00;99.90
19168;DHT22;9716;53.114;18.040;2023-07-30T06:13:07;22.00;99.90
19168;DHT22;9716;53.114;18.040;2023-07-30T06:15:37;22.10;99.90
19168;DHT22;9716;53.114;18.040;2023-07-30T06:18:06;22.10;99.90
19168;DHT22;9716;53.114;18.040;2023-07-30T06:20:34;22.20;99.90
19168;DHT22;9716;53.114;18.040;2023-07-30T06:23:03;22.20;99.90
19168;DHT22;9716;53.114;18.040;2023-07-30T06:25:32;22.20;99.90
19168;DHT22;9716;53.114;18.040;2023-07-30T06:28:01;22.30;99.90
19168;DHT22;9716;53.114;18.040;2023-07-30T06:30:30;22.30;99.90
19168;DHT22;9716;53.114;18.040;2023-07-30T06:33:00;22.30;99.90
19168;DHT22;9716;53.114;18.040;2023-07-30T06:35:28;22.30;99.90
19168;DHT22;9716;53.114;18.040;2023-07-30T06:37:57;22.40;99.90
19168;DHT22;9716;53.114;18.040;2023-07-30T06:40:25;22.50;99.90
19168;DHT22;9716;53.114;18.040;2023-07-30T06:42:54;22.50;99.90
19168;DHT22;9716;53.114;18.040;2023-07-30T06:45:23;22.60;99.90
19168;DHT22;9716;53.114;18.040;2023-07-30T06:47:51;22.70;99.90
19168;DHT22;9716;53.114;18.040;2023-07-30T06:50:21;22.80;99.90
19168;DHT22;9716;53.114;18.040;2023-07-30T06:52:49;22.80;99.90
19168;DHT22;9716;53.114;18.040;2023-07-30T06:55:18;22.90;99.90
19168;DHT22;9716;53.114;18.040;2023-07-30T06:57:46;22.90;99.90
19168;DHT22;9716;53.114;18.040;2023-07-30T07:00:15;22.90;99.90
19168;DHT22;9716;53.114;18.040;2023-07-30T07:02:48;22.90;99.90
19168;DHT22;9716;53.114;18.040;2023-07-30T07:05:17;22.90;99.90
19168;DHT22;9716;53.114;18.040;2023-07-30T07:07:47;23.00;99.90
19168;DHT22;9716;53.114;18.040;2023-07-30T07:10:16;23.00;99.90
19168;DHT22;9716;53.114;18.040;2023-07-30T07:12:45;23.10;99.90
19168;DHT22;9716;53.114;18.040;2023-07-30T07:15:13;23.30;99.90
19168;DHT22;9716;53.114;18.040;2023-07-30T07:17:42;23.50;99.90
19168;DHT22;9716;53.114;18.040;2023-07-30T07:20:11;23.90;99.90
19168;DHT22;9716;53.114;18.040;2023-07-30T07:22:40;24.40;99.90
19168;DHT22;9716;53.114;18.040;2023-07-30T07:25:10;24.90;99.90
19168;DHT22;9716;53.114;18.040;2023-07-30T07:27:38;25.40;99.90
19168;DHT22;9716;53.114;18.040;2023-07-30T07:30:08;26.10;99.90
19168;DHT22;9716;53.114;18.040;2023-07-30T07:32:36;26.60;99.90
19168;DHT22;9716;53.114;18.040;2023-07-30T07:35:07;27.10;99.90
19168;DHT22;9716;53.114;18.040;2023-07-30T07:37:35;27.40;99.90
19168;DHT22;9716;53.114;18.040;2023-07-30T07:40:05;27.60;99.90
19168;DHT22;9716;53.114;18.040;2023-07-30T07:42:38;27.70;99.90
19168;DHT22;9716;53.114;18.040;2023-07-30T07:45:07;27.70;99.90
19168;DHT22;9716;53.114;18.040;2023-07-30T07:47:36;27.60;99.90
19168;DHT22;9716;53.114;18.040;2023-07-30T07:50:05;27.60;99.90
19168;DHT22;9716;53.114;18.040;2023-07-30T07:52:34;27.70;99.90
19168;DHT22;9716;53.114;18.040;2023-07-30T07:55:03;27.80;99.90
19168;DHT22;9716;53.114;18.040;2023-07-30T07:57:32;27.70;99.90
19168;DHT22;9716;53.114;18.040;2023-07-30T08:00:07;27.50;99.90
19168;DHT22;9716;53.114;18.040;2023-07-30T08:02:36;27.40;99.90
19168;DHT22;9716;53.114;18.040;2023-07-30T08:05:04;27.20;99.90
19168;DHT22;9716;53.114;18.040;2023-07-30T08:07:33;27.00;99.90
19168;DHT22;9716;53.114;18.040;2023-07-30T08:10:02;26.90;99.90
19168;DHT22;9716;53.114;18.040;2023-07-30T08:12:31;27.00;99.90
19168;DHT22;9716;53.114;18.040;2023-07-30T08:15:00;27.10;99.90
19168;DHT22;9716;53.114;18.040;2023-07-30T08:17:30;27.30;99.90
19168;DHT22;9716;53.114;18.040;2023-07-30T08:19:59;27.40;99.90
19168;DHT22;9716;53.114;18.040;2023-07-30T08:22:27;27.40;99.90
19168;DHT22;9716;53.114;18.040;2023-07-30T08:24:56;27.20;99.90
19168;DHT22;9716;53.114;18.040;2023-07-30T08:27:24;27.10;99.90
19168;DHT22;9716;53.114;18.040;2023-07-30T08:29:53;26.90;99.90
19168;DHT22;9716;53.114;18.040;2023-07-30T08:32:21;26.80;99.90
19168;DHT22;9716;53.114;18.040;2023-07-30T08:34:51;26.70;99.90
19168;DHT22;9716;53.114;18.040;2023-07-30T08:37:20;26.60;99.90
19168;DHT22;9716;53.114;18.040;2023-07-30T08:39:48;26.50;99.90
19168;DHT22;9716;53.114;18.040;2023-07-30T08:42:17;26.30;99.90
19168;DHT22;9716;53.114;18.040;2023-07-30T08:44:45;26.20;99.90
19168;DHT22;9716;53.114;18.040;2023-07-30T08:47:14;26.20;99.90
19168;DHT22;9716;53.114;18.040;2023-07-30T08:49:43;26.20;99.90
19168;DHT22;9716;53.114;18.040;2023-07-30T08:52:13;26.20;99.90
19168;DHT22;9716;53.114;18.040;2023-07-30T08:54:45;26.30;99.90
19168;DHT22;9716;53.114;18.040;2023-07-30T08:57:16;26.30;99.90
19168;DHT22;9716;53.114;18.040;2023-07-30T08:59:50;26.30;99.90
19168;DHT22;9716;53.114;18.040;2023-07-30T09:02:26;26.50;99.90
19168;DHT22;9716;53.114;18.040;2023-07-30T09:05:00;26.80;99.90
19168;DHT22;9716;53.114;18.040;2023-07-30T09:07:30;27.20;99.90
19168;DHT22;9716;53.114;18.040;2023-07-30T09:09:59;27.70;99.90
19168;DHT22;9716;53.114;18.040;2023-07-30T09:12:32;28.10;99.90
19168;DHT22;9716;53.114;18.040;2023-07-30T09:15:02;28.60;99.90
19168;DHT22;9716;53.114;18.040;2023-07-30T09:17:32;29.10;99.90
19168;DHT22;9716;53.114;18.040;2023-07-30T09:20:01;29.60;99.90
19168;DHT22;9716;53.114;18.040;2023-07-30T09:22:33;30.00;99.90
19168;DHT22;9716;53.114;18.040;2023-07-30T09:25:04;30.20;99.90
19168;DHT22;9716;53.114;18.040;2023-07-30T09:27:33;30.20;99.90
19168;DHT22;9716;53.114;18.040;2023-07-30T09:30:03;30.20;99.90
19168;DHT22;9716;53.114;18.040;2023-07-30T09:32:34;30.20;99.90
19168;DHT22;9716;53.114;18.040;2023-07-30T09:35:06;30.00;99.90
19168;DHT22;9716;53.114;18.040;2023-07-30T09:37:38;29.80;99.90
19168;DHT22;9716;53.114;18.040;2023-07-30T09:40:09;29.60;99.90
19168;DHT22;9716;53.114;18.040;2023-07-30T09:42:38;29.60;99.90
19168;DHT22;9716;53.114;18.040;2023-07-30T09:45:08;29.60;99.90
19168;DHT22;9716;53.114;18.040;2023-07-30T09:47:46;29.40;99.90
19168;DHT22;9716;53.114;18.040;2023-07-30T09:50:15;29.40;99.90
19168;DHT22;9716;53.114;18.040;2023-07-30T09:52:45;29.20;99.90
19168;DHT22;9716;53.114;18.040;2023-07-30T09:55:16;29.20;99.90
19168;DHT22;9716;53.114;18.040;2023-07-30T09:57:46;29.20;99.90
19168;DHT22;9716;53.114;18.040;2023-07-30T10:00:14;29.10;99.90
19168;DHT22;9716;53.114;18.040;2023-07-30T10:02:46;29.20;99.90
19168;DHT22;9716;53.114;18.040;2023-07-30T10:05:18;29.20;99.90
19168;DHT22;9716;53.114;18.040;2023-07-30T10:07:52;29.40;99.90
19168;DHT22;9716;53.114;18.040;2023-07-30T10:10:24;29.70;99.90
19168;DHT22;9716;53.114;18.040;2023-07-30T10:12:55;29.80;99.90
19168;DHT22;9716;53.114;18.040;2023-07-30T10:15:25;30.00;99.90
19168;DHT22;9716;53.114;18.040;2023-07-30T10:17:56;30.10;99.90
19168;DHT22;9716;53.114;18.040;2023-07-30T10:20:31;30.20;99.90
19168;DHT22;9716;53.114;18.040;2023-07-30T10:23:04;30.10;99.90
19168;DHT22;9716;53.114;18.040;2023-07-30T10:25:43;30.20;99.90
19168;DHT22;9716;53.114;18.040;2023-07-30T10:28:26;30.20;99.90
19168;DHT22;9716;53.114;18.040;2023-07-30T10:30:56;30.30;99.90
19168;DHT22;9716;53.114;18.040;2023-07-30T10:33:44;30.30;99.90
19168;DHT22;9716;53.114;18.040;2023-07-30T10:36:13;30.30;99.90
19168;DHT22;9716;53.114;18.040;2023-07-30T10:38:44;30.20;99.90
19168;DHT22;9716;53.114;18.040;2023-07-30T10:41:13;30.20;99.90
19168;DHT22;9716;53.114;18.040;2023-07-30T10:43:46;30.10;99.90
19168;DHT22;9716;53.114;18.040;2023-07-30T10:46:16;30.00;99.90
19168;DHT22;9716;53.114;18.040;2023-07-30T10:48:46;30.00;99.90
19168;DHT22;9716;53.114;18.040;2023-07-30T10:51:16;29.90;99.90
19168;DHT22;9716;53.114;18.040;2023-07-30T10:53:47;29.90;99.90
19168;DHT22;9716;53.114;18.040;2023-07-30T10:56:17;29.90;99.90
19168;DHT22;9716;53.114;18.040;2023-07-30T10:58:49;29.90;99.90
19168;DHT22;9716;53.114;18.040;2023-07-30T11:01:18;29.90;99.90
19168;DHT22;9716;53.114;18.040;2023-07-30T11:03:50;30.00;99.90
19168;DHT22;9716;53.114;18.040;2023-07-30T11:06:23;30.00;99.40
19168;DHT22;9716;53.114;18.040;2023-07-30T11:08:54;30.10;99.00
19168;DHT22;9716;53.114;18.040;2023-07-30T11:11:22;30.10;98.50
19168;DHT22;9716;53.114;18.040;2023-07-30T11:13:52;30.00;97.80
19168;DHT22;9716;53.114;18.040;2023-07-30T11:16:21;29.90;97.80
19168;DHT22;9716;53.114;18.040;2023-07-30T11:18:50;29.80;98.30
19168;DHT22;9716;53.114;18.040;2023-07-30T11:21:19;29.90;98.40
19168;DHT22;9716;53.114;18.040;2023-07-30T11:23:50;29.90;98.10
19168;DHT22;9716;53.114;18.040;2023-07-30T11:26:20;29.90;97.80
19168;DHT22;9716;53.114;18.040;2023-07-30T11:28:49;29.90;97.40
19168;DHT22;9716;53.114;18.040;2023-07-30T11:31:18;29.90;97.80
19168;DHT22;9716;53.114;18.040;2023-07-30T11:33:49;29.80;98.00
19168;DHT22;9716;53.114;18.040;2023-07-30T11:36:22;29.70;97.80
19168;DHT22;9716;53.114;18.040;2023-07-30T11:38:53;29.70;97.50
19168;DHT22;9716;53.114;18.040;2023-07-30T11:41:23;29.60;97.80
19168;DHT22;9716;53.114;18.040;2023-07-30T11:43:54;29.70;97.80
19168;DHT22;9716;53.114;18.040;2023-07-30T11:46:22;29.80;98.00
19168;DHT22;9716;53.114;18.040;2023-07-30T11:48:53;29.80;97.30
19168;DHT22;9716;53.114;18.040;2023-07-30T11:51:23;29.70;97.20
19168;DHT22;9716;53.114;18.040;2023-07-30T11:53:54;29.60;97.30
19168;DHT22;9716;53.114;18.040;2023-07-30T11:56:25;29.40;97.50
19168;DHT22;9716;53.114;18.040;2023-07-30T11:58:56;29.30;97.50
19168;DHT22;9716;53.114;18.040;2023-07-30T12:01:27;29.20;97.60
19168;DHT22;9716;53.114;18.040;2023-07-30T12:03:58;29.10;97.20
19168;DHT22;9716;53.114;18.040;2023-07-30T12:06:38;29.10;97.50
19168;DHT22;9716;53.114;18.040;2023-07-30T12:09:11;29.10;97.80
19168;DHT22;9716;53.114;18.040;2023-07-30T12:11:50;29.00;97.70
19168;DHT22;9716;53.114;18.040;2023-07-30T12:14:21;28.90;98.50
19168;DHT22;9716;53.114;18.040;2023-07-30T12:16:52;28.80;98.10
19168;DHT22;9716;53.114;18.040;2023-07-30T12:19:21;28.80;98.40
19168;DHT22;9716;53.114;18.040;2023-07-30T12:21:49;28.80;98.00
19168;DHT22;9716;53.114;18.040;2023-07-30T12:24:18;28.90;97.90
19168;DHT22;9716;53.114;18.040;2023-07-30T12:26:49;28.90;97.40
19168;DHT22;9716;53.114;18.040;2023-07-30T12:29:22;28.90;97.00
19168;DHT22;9716;53.114;18.040;2023-07-30T12:31:50;28.80;97.00
19168;DHT22;9716;53.114;18.040;2023-07-30T12:34:24;28.90;96.30
19168;DHT22;9716;53.114;18.040;2023-07-30T12:36:52;28.90;95.70
19168;DHT22;9716;53.114;18.040;2023-07-30T12:39:22;28.80;95.30
19168;DHT22;9716;53.114;18.040;2023-07-30T12:41:52;28.90;95.30
19168;DHT22;9716;53.114;18.040;2023-07-30T12:44:21;28.80;94.70
19168;DHT22;9716;53.114;18.040;2023-07-30T12:46:50;28.80;95.60
19168;DHT22;9716;53.114;18.040;2023-07-30T12:49:18;28.80;96.10
19168;DHT22;9716;53.114;18.040;2023-07-30T12:51:48;28.80;96.30
19168;DHT22;9716;53.114;18.040;2023-07-30T12:54:17;28.70;96.90
19168;DHT22;9716;53.114;18.040;2023-07-30T12:56:45;28.70;97.10
19168;DHT22;9716;53.114;18.040;2023-07-30T12:59:15;28.70;96.40
19168;DHT22;9716;53.114;18.040;2023-07-30T13:01:44;28.60;96.20
19168;DHT22;9716;53.114;18.040;2023-07-30T13:04:15;28.50;96.30
19168;DHT22;9716;53.114;18.040;2023-07-30T13:06:43;28.50;97.00
19168;DHT22;9716;53.114;18.040;2023-07-30T13:09:12;28.40;96.20
19168;DHT22;9716;53.114;18.040;2023-07-30T13:11:41;28.30;96.70
19168;DHT22;9716;53.114;18.040;2023-07-30T13:14:10;28.20;96.90
19168;DHT22;9716;53.114;18.040;2023-07-30T13:16:40;28.20;96.20
19168;DHT22;9716;53.114;18.040;2023-07-30T13:19:09;28.20;96.00
19168;DHT22;9716;53.114;18.040;2023-07-30T13:21:37;28.20;96.40
19168;DHT22;9716;53.114;18.040;2023-07-30T13:24:07;28.30;96.90
19168;DHT22;9716;53.114;18.040;2023-07-30T13:26:38;28.40;96.80
19168;DHT22;9716;53.114;18.040;2023-07-30T13:29:07;28.50;97.00
19168;DHT22;9716;53.114;18.040;2023-07-30T13:31:35;28.50;97.00
19168;DHT22;9716;53.114;18.040;2023-07-30T13:34:06;28.50;96.90
19168;DHT22;9716;53.114;18.040;2023-07-30T13:36:35;28.50;96.80
19168;DHT22;9716;53.114;18.040;2023-07-30T13:39:03;28.60;97.00
19168;DHT22;9716;53.114;18.040;2023-07-30T13:41:33;28.60;96.90
19168;DHT22;9716;53.114;18.040;2023-07-30T13:44:07;28.70;97.00
19168;DHT22;9716;53.114;18.040;2023-07-30T13:46:35;28.70;97.10
19168;DHT22;9716;53.114;18.040;2023-07-30T13:49:06;28.70;97.10
19168;DHT22;9716;53.114;18.040;2023-07-30T13:51:35;28.70;97.20
19168;DHT22;9716;53.114;18.040;2023-07-30T13:54:04;28.80;97.30
19168;DHT22;9716;53.114;18.040;2023-07-30T13:56:37;28.80;97.20
19168;DHT22;9716;53.114;18.040;2023-07-30T13:59:06;28.80;97.20
19168;DHT22;9716;53.114;18.040;2023-07-30T14:01:35;28.80;97.20
19168;DHT22;9716;53.114;18.040;2023-07-30T14:04:05;28.70;96.90
19168;DHT22;9716;53.114;18.040;2023-07-30T14:06:34;28.70;97.10
19168;DHT22;9716;53.114;18.040;2023-07-30T14:09:04;28.60;97.40
19168;DHT22;9716;53.114;18.040;2023-07-30T14:11:33;28.40;97.50
19168;DHT22;9716;53.114;18.040;2023-07-30T14:14:01;28.30;97.80
19168;DHT22;9716;53.114;18.040;2023-07-30T14:16:30;28.20;97.50
19168;DHT22;9716;53.114;18.040;2023-07-30T14:18:58;28.10;97.80
19168;DHT22;9716;53.114;18.040;2023-07-30T14:21:28;28.10;98.00
19168;DHT22;9716;53.114;18.040;2023-07-30T14:23:56;28.10;97.80
19168;DHT22;9716;53.114;18.040;2023-07-30T14:26:25;28.20;97.80
19168;DHT22;9716;53.114;18.040;2023-07-30T14:28:53;28.20;97.90
19168;DHT22;9716;53.114;18.040;2023-07-30T14:31:21;28.20;98.00
19168;DHT22;9716;53.114;18.040;2023-07-30T14:33:50;28.20;98.00
19168;DHT22;9716;53.114;18.040;2023-07-30T14:36:19;28.10;97.90
19168;DHT22;9716;53.114;18.040;2023-07-30T14:38:49;28.10;97.60
19168;DHT22;9716;53.114;18.040;2023-07-30T14:41:17;28.10;96.50
19168;DHT22;9716;53.114;18.040;2023-07-30T14:43:46;28.00;97.00
19168;DHT22;9716;53.114;18.040;2023-07-30T14:46:14;27.90;96.80
19168;DHT22;9716;53.114;18.040;2023-07-30T14:48:43;27.90;97.20
19168;DHT22;9716;53.114;18.040;2023-07-30T14:51:11;27.80;97.50
19168;DHT22;9716;53.114;18.040;2023-07-30T14:53:40;27.80;97.80
19168;DHT22;9716;53.114;18.040;2023-07-30T14:56:10;27.70;98.00
19168;DHT22;9716;53.114;18.040;2023-07-30T14:58:38;27.70;98.10
19168;DHT22;9716;53.114;18.040;2023-07-30T15:01:07;27.60;97.90
19168;DHT22;9716;53.114;18.040;2023-07-30T15:03:38;27.60;97.70
19168;DHT22;9716;53.114;18.040;2023-07-30T15:06:07;27.60;97.60
19168;DHT22;9716;53.114;18.040;2023-07-30T15:08:38;27.50;97.60
19168;DHT22;9716;53.114;18.040;2023-07-30T15:11:07;27.50;97.60
19168;DHT22;9716;53.114;18.040;2023-07-30T15:13:37;27.40;97.60
19168;DHT22;9716;53.114;18.040;2023-07-30T15:16:05;27.30;97.80
19168;DHT22;9716;53.114;18.040;2023-07-30T15:18:34;27.20;97.80
19168;DHT22;9716;53.114;18.040;2023-07-30T15:21:02;27.10;97.30
19168;DHT22;9716;53.114;18.040;2023-07-30T15:23:31;27.00;97.20
19168;DHT22;9716;53.114;18.040;2023-07-30T15:25:59;26.90;97.20
19168;DHT22;9716;53.114;18.040;2023-07-30T15:28:28;26.90;96.60
19168;DHT22;9716;53.114;18.040;2023-07-30T15:30:59;26.80;96.50
19168;DHT22;9716;53.114;18.040;2023-07-30T15:33:28;26.70;96.60
19168;DHT22;9716;53.114;18.040;2023-07-30T15:35:56;26.70;96.70
19168;DHT22;9716;53.114;18.040;2023-07-30T15:38:25;26.60;96.70
19168;DHT22;9716;53.114;18.040;2023-07-30T15:40:54;26.50;96.90
19168;DHT22;9716;53.114;18.040;2023-07-30T15:43:22;26.50;96.80